createdAt,value
2023-03-08T00:01:54.393Z,30.53
2023-03-08T00:04:21.123Z,30.90
2023-03-08T00:06:58.719Z,32.67
2023-03-08T00:09:25.384Z,33.70
2023-03-08T00:11:51.969Z,41.20
2023-03-08T00:14:22.402Z,41.10
2023-03-08T00:16:49.641Z,40.80
2023-03-08T00:19:16.531Z,36.53
2023-03-08T00:21:44.408Z,32.47
2023-03-08T00:24:12.323Z,34.47
2023-03-08T00:26:39.204Z,29.40
2023-03-08T00:29:06.636Z,29.20
2023-03-08T00:31:33.494Z,28.70
2023-03-08T00:34:00.577Z,29.30
2023-03-08T00:36:27.450Z,27.43
2023-03-08T00:38:56.724Z,29.20
2023-03-08T00:41:23.393Z,25.70
2023-03-08T00:43:50.172Z,25.50
2023-03-08T00:46:20.175Z,27.93
2023-03-08T00:48:49.437Z,24.50
2023-03-08T00:51:17.300Z,20.90
2023-03-08T00:53:44.678Z,21.07
2023-03-08T00:56:14.301Z,19.70
2023-03-08T00:58:41.548Z,15.30
2023-03-08T01:01:14.163Z,14.37
2023-03-08T01:03:42.274Z,12.17
2023-03-08T01:06:11.347Z,12.13
2023-03-08T01:08:42.709Z,14.73
2023-03-08T01:11:21.813Z,10.57
2023-03-08T01:13:49.633Z,10.33
2023-03-08T01:16:20.235Z,11.23
2023-03-08T01:18:52.301Z,9.57
2023-03-08T01:21:20.336Z,10.00
2023-03-08T01:23:48.413Z,10.13
2023-03-08T01:26:19.782Z,12.33
2023-03-08T01:28:49.551Z,11.73
2023-03-08T01:31:22.221Z,11.70
2023-03-08T01:33:50.859Z,11.73
2023-03-08T01:36:20.060Z,13.27
2023-03-08T01:38:47.471Z,12.13
2023-03-08T01:41:25.434Z,13.50
2023-03-08T01:43:55.140Z,11.97
2023-03-08T01:46:32.823Z,13.37
2023-03-08T01:49:12.012Z,11.60
2023-03-08T01:51:56.407Z,12.07
2023-03-08T01:54:27.283Z,12.37
2023-03-08T01:57:19.452Z,12.77
2023-03-08T01:59:48.991Z,11.63
2023-03-08T02:02:23.089Z,11.70
2023-03-08T02:04:53.457Z,10.83
2023-03-08T02:07:20.014Z,14.57
2023-03-08T02:09:48.588Z,13.37
2023-03-08T02:12:21.168Z,11.33
2023-03-08T02:14:50.062Z,11.13
2023-03-08T02:17:19.695Z,13.13
2023-03-08T02:19:55.045Z,13.03
2023-03-08T02:22:21.989Z,11.23
2023-03-08T02:24:48.857Z,12.13
2023-03-08T02:27:24.019Z,13.03
2023-03-08T02:29:51.715Z,11.73
2023-03-08T02:32:19.752Z,11.07
2023-03-08T02:34:46.458Z,12.00
2023-03-08T02:37:15.892Z,10.97
2023-03-08T02:39:45.585Z,10.03
2023-03-08T02:42:14.433Z,11.33
2023-03-08T02:44:42.829Z,10.37
2023-03-08T02:47:13.204Z,11.73
2023-03-08T02:49:43.648Z,12.90
2023-03-08T02:52:12.466Z,12.13
2023-03-08T02:54:39.058Z,12.00
2023-03-08T02:57:09.959Z,12.33
2023-03-08T02:59:40.093Z,10.80
2023-03-08T03:02:06.802Z,8.70
2023-03-08T03:04:33.740Z,9.37
2023-03-08T03:07:00.975Z,15.10
2023-03-08T03:09:34.809Z,10.07
2023-03-08T03:12:13.988Z,7.90
2023-03-08T03:14:42.629Z,9.60
2023-03-08T03:17:12.921Z,8.73
2023-03-08T03:19:39.653Z,10.37
2023-03-08T03:22:07.750Z,7.70
2023-03-08T03:24:37.180Z,8.10
2023-03-08T03:27:05.404Z,8.87
2023-03-08T03:29:38.945Z,9.37
2023-03-08T03:32:27.064Z,9.70
2023-03-08T03:34:55.574Z,8.47
2023-03-08T03:37:24.976Z,8.33
2023-03-08T03:39:54.095Z,8.93
2023-03-08T03:42:25.039Z,8.53
2023-03-08T03:45:03.620Z,7.83
2023-03-08T03:47:30.860Z,7.40
2023-03-08T03:50:00.761Z,7.17
2023-03-08T03:52:32.023Z,8.27
2023-03-08T03:55:04.613Z,8.87
2023-03-08T03:57:32.899Z,9.33
2023-03-08T04:00:02.574Z,9.30
2023-03-08T04:02:31.854Z,8.40
2023-03-08T04:05:00.136Z,9.60
2023-03-08T04:07:30.262Z,8.53
2023-03-08T04:10:02.941Z,8.80
2023-03-08T04:12:31.260Z,9.73
2023-03-08T04:15:00.701Z,9.80
2023-03-08T04:17:30.185Z,9.33
2023-03-08T04:19:56.966Z,11.20
2023-03-08T04:22:29.283Z,9.87
2023-03-08T04:25:14.198Z,8.93
2023-03-08T04:27:47.952Z,9.43
2023-03-08T04:30:15.214Z,10.90
2023-03-08T04:32:46.895Z,9.50
2023-03-08T04:35:14.222Z,11.07
2023-03-08T04:37:49.819Z,10.13
2023-03-08T04:40:19.924Z,10.20
2023-03-08T04:42:55.697Z,11.43
2023-03-08T04:45:28.219Z,8.60
2023-03-08T04:48:01.457Z,9.77
2023-03-08T04:50:31.402Z,8.87
2023-03-08T04:52:58.367Z,10.87
2023-03-08T04:55:25.643Z,10.30
2023-03-08T04:58:00.160Z,10.63
2023-03-08T05:00:29.578Z,8.33
2023-03-08T05:03:03.579Z,9.33
2023-03-08T05:05:32.270Z,8.57
2023-03-08T05:08:05.183Z,9.43
2023-03-08T05:10:37.403Z,14.87
2023-03-08T05:13:04.115Z,9.47
2023-03-08T05:15:31.105Z,8.47
2023-03-08T05:18:22.177Z,9.07
2023-03-08T05:21:02.194Z,7.63
2023-03-08T05:23:30.977Z,7.73
2023-03-08T05:26:02.106Z,8.17
2023-03-08T05:28:33.870Z,8.33
2023-03-08T05:31:15.690Z,8.17
2023-03-08T05:33:49.328Z,7.97
2023-03-08T05:36:18.531Z,11.00
2023-03-08T05:38:47.175Z,11.60
2023-03-08T05:41:18.401Z,21.80
2023-03-08T05:43:49.216Z,16.57
2023-03-08T05:46:18.176Z,17.87
2023-03-08T05:48:48.440Z,15.50
2023-03-08T05:51:20.485Z,12.47
2023-03-08T05:53:48.589Z,8.70
2023-03-08T05:56:19.578Z,11.80
2023-03-08T05:59:04.759Z,7.77
2023-03-08T06:01:32.441Z,7.57
2023-03-08T06:04:10.755Z,8.17
2023-03-08T06:06:40.503Z,10.33
2023-03-08T06:09:11.404Z,7.83
2023-03-08T06:11:45.180Z,6.27
2023-03-08T06:14:13.315Z,8.57
2023-03-08T06:16:40.730Z,7.33
2023-03-08T06:19:13.383Z,7.77
2023-03-08T06:21:40.231Z,7.70
2023-03-08T06:24:09.321Z,6.27
2023-03-08T06:26:38.415Z,7.97
2023-03-08T06:29:08.399Z,7.60
2023-03-08T06:31:37.567Z,6.50
2023-03-08T06:34:06.399Z,8.33
2023-03-08T06:36:43.878Z,7.23
2023-03-08T06:39:10.618Z,7.27
2023-03-08T06:41:40.420Z,7.13
2023-03-08T06:44:09.449Z,6.87
2023-03-08T06:46:37.424Z,6.50
2023-03-08T06:49:07.656Z,8.03
2023-03-08T06:51:35.480Z,6.10
2023-03-08T06:54:04.621Z,7.60
2023-03-08T06:56:32.335Z,7.03
2023-03-08T06:59:01.331Z,7.23
2023-03-08T07:01:34.426Z,7.77
2023-03-08T07:04:01.197Z,7.03
2023-03-08T07:06:30.142Z,8.13
2023-03-08T07:08:57.273Z,7.73
2023-03-08T07:11:28.227Z,7.90
2023-03-08T07:13:55.260Z,7.43
2023-03-08T07:16:25.206Z,6.83
2023-03-08T07:18:52.478Z,7.67
2023-03-08T07:21:19.488Z,7.73
2023-03-08T07:23:48.909Z,8.00
2023-03-08T07:26:15.560Z,8.47
2023-03-08T07:28:49.918Z,8.07
2023-03-08T07:31:24.265Z,7.60
2023-03-08T07:33:52.464Z,6.80
2023-03-08T07:36:19.142Z,7.53
2023-03-08T07:38:46.912Z,7.13
2023-03-08T07:41:16.471Z,8.10
2023-03-08T07:43:44.476Z,8.00
2023-03-08T07:46:20.363Z,7.47
2023-03-08T07:48:55.419Z,7.33
2023-03-08T07:51:30.784Z,6.63
2023-03-08T07:54:07.183Z,6.87
2023-03-08T07:56:37.998Z,7.03
2023-03-08T07:59:12.298Z,6.70
2023-03-08T08:01:41.150Z,7.90
2023-03-08T08:04:19.031Z,7.77
2023-03-08T08:06:50.448Z,6.23
2023-03-08T08:09:24.346Z,7.23
2023-03-08T08:11:51.339Z,6.67
2023-03-08T08:14:19.868Z,7.53
2023-03-08T08:16:46.589Z,7.37
2023-03-08T08:19:16.736Z,8.10
2023-03-08T08:21:44.460Z,6.87
2023-03-08T08:24:15.310Z,7.13
2023-03-08T08:26:45.313Z,6.90
2023-03-08T08:29:14.606Z,6.70
2023-03-08T08:31:41.353Z,6.63
2023-03-08T08:34:08.640Z,7.70
2023-03-08T08:36:36.698Z,6.00
2023-03-08T08:39:05.614Z,5.70
2023-03-08T08:41:34.496Z,5.70
2023-03-08T08:44:05.480Z,6.53
2023-03-08T08:46:34.215Z,6.33
2023-03-08T08:49:04.055Z,6.00
2023-03-08T08:51:31.052Z,5.00
2023-03-08T08:53:57.876Z,5.70
2023-03-08T08:56:28.534Z,4.97
2023-03-08T08:59:01.973Z,7.50
2023-03-08T09:01:35.688Z,6.73
2023-03-08T09:04:05.315Z,9.60
2023-03-08T09:06:33.068Z,27.87
2023-03-08T09:09:00.118Z,10.00
2023-03-08T09:11:28.063Z,5.70
2023-03-08T09:13:54.903Z,5.30
2023-03-08T09:16:24.551Z,5.63
2023-03-08T09:18:54.010Z,5.13
2023-03-08T09:21:26.929Z,7.20
2023-03-08T09:23:54.104Z,6.20
2023-03-08T09:26:23.236Z,6.13
2023-03-08T09:28:53.260Z,7.53
2023-03-08T09:31:21.261Z,7.07
2023-03-08T09:33:51.856Z,6.87
2023-03-08T09:36:19.290Z,6.90
2023-03-08T09:39:11.349Z,6.90
2023-03-08T09:41:44.275Z,8.00
2023-03-08T09:44:18.397Z,7.20
2023-03-08T09:47:06.341Z,7.80
2023-03-08T09:49:38.458Z,7.80
2023-03-08T09:52:15.245Z,8.07
2023-03-08T09:54:42.567Z,8.37
2023-03-08T09:57:29.262Z,8.93
2023-03-08T09:59:58.396Z,10.17
2023-03-08T10:02:59.821Z,9.40
2023-03-08T10:05:42.746Z,9.30
2023-03-08T10:08:32.701Z,10.27
2023-03-08T10:11:12.354Z,10.13
2023-03-08T10:13:43.344Z,9.87
2023-03-08T10:16:23.563Z,10.53
2023-03-08T10:19:22.501Z,10.50
2023-03-08T10:21:53.220Z,12.93
2023-03-08T10:24:31.221Z,12.87
2023-03-08T10:27:09.844Z,12.10
2023-03-08T10:29:36.501Z,11.40
2023-03-08T10:32:03.792Z,12.17
2023-03-08T10:34:32.502Z,11.47
2023-03-08T10:37:02.447Z,12.63
2023-03-08T10:39:31.437Z,14.30
2023-03-08T10:42:05.580Z,12.47
2023-03-08T10:44:40.402Z,24.60
2023-03-08T10:47:38.544Z,25.10
2023-03-08T10:50:12.034Z,16.07
2023-03-08T10:52:42.475Z,12.33
2023-03-08T10:55:23.912Z,13.07
2023-03-08T10:58:00.875Z,12.97
2023-03-08T11:00:33.001Z,13.67
2023-03-08T11:03:10.722Z,15.07
2023-03-08T11:05:37.835Z,13.67
2023-03-08T11:08:18.661Z,13.87
2023-03-08T11:10:47.618Z,12.23
2023-03-08T11:13:31.776Z,13.37
2023-03-08T11:16:20.366Z,16.00
2023-03-08T11:19:07.062Z,13.80
2023-03-08T11:21:44.064Z,13.80
2023-03-08T11:24:18.481Z,13.43
2023-03-08T11:26:55.389Z,12.93
2023-03-08T11:29:34.325Z,12.13
2023-03-08T11:32:37.718Z,13.83
2023-03-08T11:35:32.920Z,16.10
2023-03-08T11:38:12.784Z,13.97
2023-03-08T11:41:04.208Z,11.07
2023-03-08T11:43:52.766Z,13.47
2023-03-08T11:46:25.701Z,12.77
2023-03-08T11:49:20.240Z,14.30
2023-03-08T11:52:28.675Z,12.87
2023-03-08T11:55:10.966Z,12.50
2023-03-08T11:57:43.013Z,17.30
2023-03-08T12:00:23.044Z,12.83
2023-03-08T12:02:55.764Z,14.00
2023-03-08T12:05:39.313Z,14.20
2023-03-08T12:08:23.217Z,16.63
2023-03-08T12:11:10.780Z,15.03
2023-03-08T12:13:48.699Z,16.30
2023-03-08T12:16:54.628Z,15.33
2023-03-08T12:19:29.352Z,16.07
2023-03-08T12:22:05.585Z,15.27
2023-03-08T12:24:42.453Z,14.97
2023-03-08T12:27:16.497Z,14.77
2023-03-08T12:30:04.818Z,16.83
2023-03-08T12:32:32.670Z,16.67
2023-03-08T12:35:06.503Z,16.50
2023-03-08T12:37:33.333Z,15.23
2023-03-08T12:40:25.961Z,16.53
2023-03-08T12:43:13.773Z,17.93
2023-03-08T12:45:59.743Z,17.03
2023-03-08T12:48:26.893Z,15.50
2023-03-08T12:50:53.491Z,17.07
2023-03-08T12:53:27.045Z,15.67
2023-03-08T12:56:22.950Z,16.33
2023-03-08T12:58:55.243Z,15.73
2023-03-08T13:01:44.841Z,15.63
2023-03-08T13:04:40.405Z,14.93
2023-03-08T13:07:20.650Z,16.33
2023-03-08T13:09:53.326Z,16.10
2023-03-08T13:12:28.374Z,14.00
2023-03-08T13:15:09.975Z,15.50
2023-03-08T13:17:45.869Z,18.00
2023-03-08T13:20:24.638Z,16.10
2023-03-08T13:23:12.522Z,17.40
2023-03-08T13:25:54.087Z,16.33
2023-03-08T13:28:30.388Z,39.27
2023-03-08T13:31:06.672Z,49.00
2023-03-08T13:33:49.191Z,27.30
2023-03-08T13:36:24.276Z,27.77
2023-03-08T13:39:06.453Z,17.80
2023-03-08T13:41:45.838Z,19.30
2023-03-08T13:44:22.507Z,14.03
2023-03-08T13:47:00.030Z,14.67
2023-03-08T13:49:29.767Z,13.60
2023-03-08T13:52:02.655Z,13.60
2023-03-08T13:54:42.702Z,13.63
2023-03-08T13:57:26.561Z,12.23
2023-03-08T14:00:01.892Z,12.10
2023-03-08T14:02:32.174Z,11.80
2023-03-08T14:04:58.938Z,13.20
2023-03-08T14:07:28.795Z,14.70
2023-03-08T14:09:58.301Z,11.57
2023-03-08T14:12:28.408Z,13.00
2023-03-08T14:15:00.910Z,12.17
2023-03-08T14:17:30.774Z,12.63
2023-03-08T14:20:00.905Z,12.40
2023-03-08T14:22:39.699Z,12.63
2023-03-08T14:25:07.585Z,13.57
2023-03-08T14:27:38.630Z,12.00
2023-03-08T14:30:25.009Z,10.73
2023-03-08T14:32:59.591Z,16.13
2023-03-08T14:35:29.962Z,13.50
2023-03-08T14:37:57.250Z,43.60
2023-03-08T14:40:35.639Z,20.47
2023-03-08T14:43:05.961Z,13.33
2023-03-08T14:45:35.553Z,14.50
2023-03-08T14:48:21.248Z,12.27
2023-03-08T14:50:59.752Z,13.47
2023-03-08T14:53:58.974Z,13.73
2023-03-08T14:56:26.930Z,10.63
2023-03-08T14:58:55.725Z,13.47
2023-03-08T15:01:32.436Z,13.10
2023-03-08T15:03:59.255Z,11.13
2023-03-08T15:06:31.148Z,10.53
2023-03-08T15:08:58.933Z,12.53
2023-03-08T15:11:27.703Z,12.63
2023-03-08T15:14:00.489Z,12.40
2023-03-08T15:16:30.105Z,9.80
2023-03-08T15:18:56.809Z,11.13
2023-03-08T15:21:28.468Z,10.90
2023-03-08T15:23:55.721Z,9.27
2023-03-08T15:26:25.985Z,10.97
2023-03-08T15:28:57.958Z,11.23
2023-03-08T15:31:29.988Z,8.57
2023-03-08T15:34:00.503Z,10.23
2023-03-08T15:36:27.304Z,11.60
2023-03-08T15:38:55.065Z,9.50
2023-03-08T15:41:22.991Z,9.80
2023-03-08T15:43:55.904Z,12.00
2023-03-08T15:46:28.836Z,17.20
2023-03-08T15:49:00.300Z,13.57
2023-03-08T15:51:39.469Z,11.13
2023-03-08T15:54:06.766Z,10.10
2023-03-08T15:56:35.962Z,9.77
2023-03-08T15:59:03.689Z,8.70
2023-03-08T16:01:32.469Z,12.57
2023-03-08T16:03:59.165Z,10.80
2023-03-08T16:06:26.025Z,9.97
2023-03-08T16:08:56.300Z,9.07
2023-03-08T16:11:28.043Z,9.40
2023-03-08T16:13:58.862Z,9.73
2023-03-08T16:16:44.926Z,9.23
2023-03-08T16:19:13.149Z,9.90
2023-03-08T16:21:41.315Z,9.53
2023-03-08T16:24:11.903Z,10.67
2023-03-08T16:26:40.776Z,13.90
2023-03-08T16:29:20.368Z,20.50
2023-03-08T16:31:49.987Z,23.77
2023-03-08T16:34:17.284Z,20.97
2023-03-08T16:36:46.260Z,15.67
2023-03-08T16:39:17.114Z,11.40
2023-03-08T16:41:46.379Z,9.30
2023-03-08T16:44:18.580Z,9.07
2023-03-08T16:46:45.250Z,8.80
2023-03-08T16:49:15.574Z,8.53
2023-03-08T16:51:43.126Z,8.10
2023-03-08T16:54:12.920Z,10.27
2023-03-08T16:56:40.813Z,11.40
2023-03-08T16:59:07.415Z,13.10
2023-03-08T17:01:35.109Z,10.03
2023-03-08T17:04:01.763Z,10.57
2023-03-08T17:06:33.459Z,9.97
2023-03-08T17:09:00.322Z,11.33
2023-03-08T17:11:35.728Z,10.90
2023-03-08T17:14:07.816Z,11.47
2023-03-08T17:16:35.633Z,13.40
2023-03-08T17:19:04.803Z,11.57
2023-03-08T17:21:38.304Z,10.27
2023-03-08T17:24:11.284Z,13.40
2023-03-08T17:26:42.155Z,14.90
2023-03-08T17:29:08.967Z,13.40
2023-03-08T17:31:36.762Z,13.57
2023-03-08T17:34:04.031Z,11.33
2023-03-08T17:36:31.806Z,15.10
2023-03-08T17:39:01.338Z,11.73
2023-03-08T17:41:28.098Z,13.27
2023-03-08T17:43:54.804Z,15.17
2023-03-08T17:46:23.881Z,13.60
2023-03-08T17:48:53.242Z,11.20
2023-03-08T17:51:22.834Z,14.13
2023-03-08T17:53:54.614Z,61.10
2023-03-08T17:56:26.374Z,50.57
2023-03-08T17:58:53.292Z,30.40
2023-03-08T18:01:22.847Z,27.13
2023-03-08T18:03:55.455Z,24.07
2023-03-08T18:06:33.256Z,17.17
2023-03-08T18:09:05.779Z,19.50
2023-03-08T18:11:37.595Z,111.53
2023-03-08T18:14:08.013Z,49.10
2023-03-08T18:16:44.876Z,45.67
2023-03-08T18:19:11.957Z,33.57
2023-03-08T18:21:41.642Z,22.53
2023-03-08T18:24:14.356Z,17.87
2023-03-08T18:26:43.047Z,15.10
2023-03-08T18:29:12.654Z,12.70
2023-03-08T18:31:40.354Z,13.23
2023-03-08T18:34:09.941Z,14.20
2023-03-08T18:36:37.597Z,11.07
2023-03-08T18:39:05.669Z,11.00
2023-03-08T18:41:33.670Z,11.27
2023-03-08T18:44:00.408Z,11.43
2023-03-08T18:46:33.210Z,11.47
2023-03-08T18:49:05.113Z,16.80
2023-03-08T18:51:39.218Z,11.23
2023-03-08T18:54:09.148Z,11.10
2023-03-08T18:56:36.904Z,15.93
2023-03-08T18:59:05.747Z,11.33
2023-03-08T19:01:38.626Z,11.47
2023-03-08T19:04:08.294Z,10.03
2023-03-08T19:06:36.351Z,10.63
2023-03-08T19:09:12.816Z,9.00
2023-03-08T19:11:50.226Z,9.87
2023-03-08T19:14:19.996Z,8.53
2023-03-08T19:16:49.451Z,9.33
2023-03-08T19:19:18.797Z,11.23
2023-03-08T19:21:48.913Z,10.30
2023-03-08T19:24:17.291Z,11.03
2023-03-08T19:26:47.299Z,8.73
2023-03-08T19:29:21.047Z,10.43
2023-03-08T19:31:57.889Z,10.43
2023-03-08T19:34:35.994Z,9.27
2023-03-08T19:37:04.217Z,9.00
2023-03-08T19:39:33.857Z,8.50
2023-03-08T19:42:22.393Z,8.40
2023-03-08T19:44:50.859Z,7.33
2023-03-08T19:47:20.291Z,7.33
2023-03-08T19:49:49.622Z,6.83
2023-03-08T19:52:18.489Z,6.53
2023-03-08T19:54:50.124Z,8.43
2023-03-08T19:57:16.857Z,8.77
2023-03-08T19:59:43.529Z,6.80
2023-03-08T20:02:12.339Z,8.10
2023-03-08T20:04:42.340Z,8.17
2023-03-08T20:07:09.081Z,6.40
2023-03-08T20:09:38.004Z,7.63
2023-03-08T20:12:05.073Z,6.00
2023-03-08T20:14:34.055Z,6.20
2023-03-08T20:17:04.998Z,6.77
2023-03-08T20:19:33.904Z,6.87
2023-03-08T20:22:01.275Z,8.07
2023-03-08T20:24:28.146Z,6.13
2023-03-08T20:26:58.467Z,5.83
2023-03-08T20:29:25.157Z,6.27
2023-03-08T20:31:52.063Z,5.93
2023-03-08T20:34:25.445Z,7.57
2023-03-08T20:36:54.453Z,6.50
2023-03-08T20:39:23.722Z,7.60
2023-03-08T20:41:51.180Z,4.77
2023-03-08T20:44:18.986Z,6.67
2023-03-08T20:46:48.217Z,5.37
2023-03-08T20:49:16.712Z,5.10
2023-03-08T20:51:43.353Z,5.30
2023-03-08T20:54:13.008Z,6.63
2023-03-08T20:56:42.645Z,5.33
2023-03-08T20:59:09.322Z,5.30
2023-03-08T21:01:36.885Z,4.70
2023-03-08T21:04:05.037Z,9.27
2023-03-08T21:06:32.009Z,5.27
2023-03-08T21:09:01.807Z,5.27
2023-03-08T21:11:28.666Z,4.23
2023-03-08T21:14:01.088Z,5.50
2023-03-08T21:16:29.078Z,4.87
2023-03-08T21:19:02.707Z,5.27
2023-03-08T21:21:45.307Z,4.87
2023-03-08T21:24:14.658Z,5.97
2023-03-08T21:26:41.877Z,5.93
2023-03-08T21:29:12.102Z,6.47
2023-03-08T21:31:42.645Z,5.87
2023-03-08T21:34:12.169Z,5.13
2023-03-08T21:36:41.532Z,6.97
2023-03-08T21:39:11.892Z,5.97
2023-03-08T21:41:43.357Z,4.97
2023-03-08T21:44:14.094Z,4.67
2023-03-08T21:46:41.393Z,4.40
2023-03-08T21:49:19.629Z,4.60
2023-03-08T21:52:11.312Z,4.37
2023-03-08T21:57:21.850Z,4.43
2023-03-08T21:59:58.557Z,4.27
2023-03-08T22:02:28.221Z,5.90
2023-03-08T22:04:55.814Z,4.73
2023-03-08T22:07:22.460Z,3.90
2023-03-08T22:09:49.345Z,4.03
2023-03-08T22:12:18.196Z,4.30
2023-03-08T22:14:46.486Z,4.97
2023-03-08T22:17:13.072Z,6.17
2023-03-08T22:19:47.617Z,4.83
2023-03-08T22:22:17.831Z,3.67
2023-03-08T22:24:45.272Z,5.57
2023-03-08T22:27:13.110Z,4.67
2023-03-08T22:29:43.565Z,3.70
2023-03-08T22:32:12.810Z,4.87
2023-03-08T22:34:39.456Z,4.63
2023-03-08T22:37:06.481Z,3.50
2023-03-08T22:39:37.387Z,4.13
2023-03-08T22:42:04.436Z,5.37
2023-03-08T22:44:31.309Z,7.90
2023-03-08T22:46:58.410Z,3.90
2023-03-08T22:49:25.107Z,3.90
2023-03-08T22:51:52.520Z,3.40
2023-03-08T22:54:21.338Z,4.10
2023-03-08T22:56:54.145Z,4.13
2023-03-08T22:59:20.883Z,5.50
2023-03-08T23:01:47.563Z,6.03
2023-03-08T23:04:14.464Z,3.43
2023-03-08T23:06:42.849Z,3.50
2023-03-08T23:09:16.598Z,5.57
2023-03-08T23:11:44.461Z,3.73
2023-03-08T23:14:16.340Z,5.77
2023-03-08T23:16:45.013Z,5.13
2023-03-08T23:19:20.200Z,5.13
2023-03-08T23:21:47.225Z,5.00
2023-03-08T23:24:14.810Z,4.23
2023-03-08T23:26:43.127Z,3.50
2023-03-08T23:29:09.948Z,4.50
2023-03-08T23:31:42.157Z,6.37
2023-03-08T23:34:10.756Z,8.07
2023-03-08T23:36:37.424Z,6.13
2023-03-08T23:39:05.144Z,5.20
2023-03-08T23:41:36.523Z,5.20
2023-03-08T23:44:06.422Z,5.90
2023-03-08T23:46:37.287Z,5.23
2023-03-08T23:49:16.947Z,6.97
2023-03-08T23:51:44.034Z,5.37
2023-03-08T23:54:14.087Z,5.80
2023-03-08T23:56:40.947Z,6.07
2023-03-08T23:59:19.066Z,6.07
